KOGD/OGD METAR and TAF weather

Enter ICAO airport designator
Station Type Date Time Source
KOGD METAR 2019/10/23 13:53 UTC NOAA

KOGD 231353Z VRB05KT 10SM CLR 06/M01 A3018 RMK AO2 SLP205 T00611006


Station Type Date Time Source
KOGD Decoded METAR 2019/10/23 13:53 UTC NOAA

OGDEN-HINCKLEY AIRPORT, UT, United States (KOGD) 41-12N 112-01W 1353M
Oct 23, 2019 - 09:53 AM EDT / 2019.10.23 1353 UTC
Wind: Variable at 6 MPH (5 KT):0
Visibility: 10 mile(s):0
Sky conditions: clear
Temperature: 43.0 F (6.1 C)
Dew Point: 30.9 F (-0.6 C)
Relative Humidity: 62%
Pressure (altimeter): 30.18 in. Hg (1022 hPa)
ob: KOGD 231353Z VRB05KT 10SM CLR 06/M01 A3018 RMK AO2 SLP205 T00611006
cycle: 14

Station Type Date Time Source
KOGD TAF 2019/10/23 12:22 UTC NOAA

TAF KOGD 231120Z 2312/2412 18007KT P6SM SCT080 SCT120
FM231600 31007KT P6SM SCT080 SCT120
FM231900 31014G22KT P6SM SCT100 SCT120
FM240100 32007KT P6SM SCT100 SCT120
FM241000 16006KT P6SM SCT100 SCT120

Example: see airport list